This is the latest recevied weather packets stored in our database for station/object W5YIU-13. If no packets are shown the sender has not sent any weather packets the latest 1 day(s).
| Time | Temp. | Humidity | Pressure | Rain* | Wind** | Luminosity | Snow |
|---|---|---|---|---|---|---|---|
| 1778189251 | 28.33° C | 65% | 1008.4 hPa | 0 mm | - | 341 W/m² | - |
| 1778188651 | 28.89° C | 63% | 1008.3 hPa | 0 mm | - | 357 W/m² | - |
| 1778188349 | 28.89° C | 63% | 1008.4 hPa | 0 mm | - | 405 W/m² | - |
| 1778188046 | 28.33° C | 65% | 1008.4 hPa | 0 mm | - | 563 W/m² | - |
| 1778187443 | 27.78° C | 66% | 1008.6 hPa | 0 mm | - | 440 W/m² | - |
| 1778183538 | 26.67° C | 67% | 1009 hPa | 0 mm | - | 387 W/m² | - |
| 1778181432 | 25° C | 70% | 1009.7 hPa | 0 mm | - | 537 W/m² | - |
| 1778180831 | 24.44° C | 72% | 1010 hPa | 0 mm | - | 485 W/m² | - |
| 1778179632 | 25° C | 71% | 1010.2 hPa | 0 mm | - | 555 W/m² | - |
| 1778177219 | 23.33° C | 75% | 1010.3 hPa | 0.25 mm | - | 468 W/m² | - |
| 1778176006 | 22.22° C | 76% | 1010.8 hPa | 0.25 mm | - | 304 W/m² | - |
| 1778175414 | 22.22° C | 76% | 1010.9 hPa | 0.25 mm | - | 296 W/m² | - |
| 1778175109 | 22.22° C | 75% | 1011.1 hPa | 0 mm | - | 269 W/m² | - |
| 1778174806 | 22.22° C | 76% | 1011.1 hPa | 0 mm | - | 304 W/m² | - |
| 1778174175 | 22.22° C | 75% | 1010.9 hPa | 0 mm | - | 348 W/m² | - |
| 1778173273 | 22.22° C | 76% | 1011.1 hPa | 0 mm | - | 265 W/m² | - |
| 1778172974 | 21.67° C | 76% | 1011.2 hPa | 0 mm | - | 273 W/m² | - |
| 1778171445 | 21.67° C | 77% | 1010.9 hPa | 0 mm | - | 325 W/m² | - |
| 1778170546 | 20.56° C | 78% | 1010.6 hPa | 0 mm | - | 373 W/m² | - |
| 1778169647 | 20° C | 81% | 1010.4 hPa | 0 mm | - | 332 W/m² | - |
| 1778168115 | 18.33° C | 84% | 1010.8 hPa | 0 mm | - | 249 W/m² | - |
| 1778166617 | 18.33° C | 85% | 1011 hPa | 0 mm | - | 188 W/m² | - |
| 1778166016 | 18.33° C | 85% | 1010.9 hPa | 0 mm | - | 167 W/m² | - |
| 1778164817 | 18.33° C | 86% | 1010.8 hPa | 0 mm | - | 91 W/m² | - |
| 1778164217 | 18.33° C | 85% | 1010.5 hPa | 0 mm | - | 146 W/m² | - |
* Rain latest hour (hover to see other rain measurements)
** Current wind speed in m/s (hover to see current wind gust speed)